createdAt,value
2023-05-06T00:00:09.454Z,96497.75
2023-05-06T00:02:41.892Z,96504.31
2023-05-06T00:05:11.569Z,96509.78
2023-05-06T00:07:40.341Z,96508.44
2023-05-06T00:10:10.199Z,96502.97
2023-05-06T00:12:39.157Z,96482.47
2023-05-06T00:15:08.693Z,96496.94
2023-05-06T00:17:38.125Z,96492.03
2023-05-06T00:20:10.915Z,96487.66
2023-05-06T00:22:40.066Z,96485.47
2023-05-06T00:25:09.086Z,96494.22
2023-05-06T00:27:39.148Z,96492.03
2023-05-06T00:30:08.772Z,96494.50
2023-05-06T00:32:37.918Z,96489.03
2023-05-06T00:35:09.527Z,96486.28
2023-05-06T00:37:39.202Z,96484.94
2023-05-06T00:40:11.054Z,96478.13
2023-05-06T00:42:39.373Z,96464.72
2023-05-06T00:45:08.975Z,96455.97
2023-05-06T00:47:38.340Z,96458.72
2023-05-06T00:50:09.354Z,96466.38
2023-05-06T00:52:38.755Z,96466.91
2023-05-06T00:55:08.205Z,96465.81
2023-05-06T00:57:36.821Z,96463.66
2023-05-06T01:00:07.989Z,96458.44
2023-05-06T01:02:46.547Z,96457.91
2023-05-06T01:05:21.421Z,96458.16
2023-05-06T01:08:05.585Z,96464.72
2023-05-06T01:10:38.615Z,96465.00
2023-05-06T01:13:13.208Z,96461.19
2023-05-06T01:15:46.329Z,96460.91
2023-05-06T01:18:18.530Z,96456.53
2023-05-06T01:20:51.460Z,96449.97
2023-05-06T01:23:21.798Z,96451.88
2023-05-06T01:25:51.633Z,96457.34
2023-05-06T01:28:20.075Z,96449.72
2023-05-06T01:31:06.849Z,96447.00
2023-05-06T01:33:43.382Z,96439.59
2023-05-06T01:36:24.432Z,96415.00
2023-05-06T01:39:01.284Z,96439.84
2023-05-06T01:41:34.977Z,96451.56
2023-05-06T01:44:06.815Z,96445.00
2023-05-06T01:46:37.232Z,96434.88
2023-05-06T01:49:11.637Z,96444.97
2023-05-06T01:51:40.320Z,96441.91
2023-05-06T01:54:11.127Z,96449.25
2023-05-06T01:56:40.574Z,96431.75
2023-05-06T01:59:09.023Z,96447.03
2023-05-06T02:01:37.922Z,96450.84
2023-05-06T02:04:09.045Z,96436.91
2023-05-06T02:06:37.835Z,96447.00
2023-05-06T02:09:08.489Z,96455.19
2023-05-06T02:11:43.766Z,96454.56
2023-05-06T02:14:13.923Z,96452.44
2023-05-06T02:16:42.370Z,96451.34
2023-05-06T02:19:11.966Z,96459.56
2023-05-06T02:21:40.414Z,96453.59
2023-05-06T02:24:09.965Z,96459.91
2023-05-06T02:26:39.823Z,96464.03
2023-05-06T02:29:09.527Z,96444.34
2023-05-06T02:31:38.458Z,96457.19
2023-05-06T02:34:06.973Z,96458.25
2023-05-06T02:36:35.881Z,96464.28
2023-05-06T02:39:04.950Z,96456.06
2023-05-06T02:41:34.640Z,96451.44
2023-05-06T02:44:03.797Z,96448.72
2023-05-06T02:46:34.275Z,96438.34
2023-05-06T02:49:02.988Z,96422.50
2023-05-06T02:51:31.870Z,96447.63
2023-05-06T02:54:00.705Z,96424.13
2023-05-06T02:56:29.529Z,96437.78
2023-05-06T02:58:58.037Z,96448.97
2023-05-06T03:01:26.592Z,96443.81
2023-05-06T03:03:56.884Z,96443.28
2023-05-06T03:06:25.338Z,96439.47
2023-05-06T03:08:54.027Z,96437.28
2023-05-06T03:11:23.366Z,96436.72
2023-05-06T03:13:51.830Z,96445.72
2023-05-06T03:16:21.116Z,96434.84
2023-05-06T03:18:53.388Z,96422.00
2023-05-06T03:21:23.836Z,96428.28
2023-05-06T03:23:53.862Z,96441.34
2023-05-06T03:26:42.484Z,96420.63
2023-05-06T03:29:13.554Z,96423.88
2023-05-06T03:31:45.145Z,96431.81
2023-05-06T03:34:14.548Z,96432.09
2023-05-06T03:36:45.468Z,96433.19
2023-05-06T03:39:14.036Z,96407.25
2023-05-06T03:41:43.918Z,96444.66
2023-05-06T03:44:12.829Z,96436.75
2023-05-06T03:46:42.389Z,96440.28
2023-05-06T03:49:11.825Z,96423.09
2023-05-06T03:51:41.262Z,96438.13
2023-05-06T03:54:13.609Z,96443.84
2023-05-06T03:56:42.083Z,96446.28
2023-05-06T03:59:11.693Z,96445.75
2023-05-06T04:01:40.709Z,96414.88
2023-05-06T04:04:11.350Z,96437.00
2023-05-06T04:06:40.596Z,96455.56
2023-05-06T04:09:10.061Z,96451.50
2023-05-06T04:11:42.070Z,96457.22
2023-05-06T04:14:13.991Z,96456.94
2023-05-06T04:16:42.704Z,96456.66
2023-05-06T04:19:11.957Z,96459.09
2023-05-06T04:21:41.134Z,96467.31
2023-05-06T04:24:13.746Z,96459.94
2023-05-06T04:26:44.756Z,96465.13
2023-05-06T04:29:13.616Z,96467.88
2023-05-06T04:31:54.349Z,96450.66
2023-05-06T04:34:24.990Z,96470.63
2023-05-06T04:36:54.721Z,96449.59
2023-05-06T04:39:39.388Z,96457.53
2023-05-06T04:42:10.215Z,96475.28
2023-05-06T04:44:46.902Z,96480.19
2023-05-06T04:47:15.381Z,96475.28
2023-05-06T04:49:48.998Z,96464.09
2023-05-06T04:52:17.930Z,96456.44
2023-05-06T04:54:46.845Z,96474.78
2023-05-06T04:57:16.646Z,96476.16
2023-05-06T04:59:47.193Z,96481.88
2023-05-06T05:02:15.694Z,96452.88
2023-05-06T05:04:45.651Z,96478.28
2023-05-06T05:07:14.155Z,96487.88
2023-05-06T05:09:44.837Z,96479.44
2023-05-06T05:12:13.305Z,96496.38
2023-05-06T05:14:48.955Z,96492.25
2023-05-06T05:17:17.779Z,96498.25
2023-05-06T05:19:48.614Z,96495.00
2023-05-06T05:22:18.636Z,96501.00
2023-05-06T05:24:47.074Z,96485.16
2023-05-06T05:27:19.010Z,96495.81
2023-05-06T05:29:48.981Z,96491.72
2023-05-06T05:32:18.616Z,96494.19
2023-05-06T05:34:47.450Z,96483.53
2023-05-06T05:37:17.349Z,96495.84
2023-05-06T05:39:45.831Z,96502.38
2023-05-06T05:42:16.893Z,96507.84
2023-05-06T05:44:47.568Z,96514.94
2023-05-06T05:47:17.368Z,96517.41
2023-05-06T05:49:47.220Z,96512.22
2023-05-06T05:52:15.824Z,96511.41
2023-05-06T05:54:44.676Z,96463.88
2023-05-06T05:57:13.427Z,96510.84
2023-05-06T05:59:43.291Z,96513.31
2023-05-06T06:02:11.776Z,96510.03
2023-05-06T06:04:42.455Z,96449.41
2023-05-06T06:07:11.100Z,96501.59
2023-05-06T06:09:43.200Z,96497.50
2023-05-06T06:12:12.083Z,96488.22
2023-05-06T06:14:42.014Z,96498.59
2023-05-06T06:17:11.133Z,96506.53
2023-05-06T06:19:41.073Z,96513.91
2023-05-06T06:22:09.979Z,96516.63
2023-05-06T06:24:38.471Z,96493.94
2023-05-06T06:27:07.278Z,96520.16
2023-05-06T06:29:35.695Z,96519.91
2023-05-06T06:32:05.265Z,96523.19
2023-05-06T06:34:33.850Z,96523.72
2023-05-06T06:37:04.970Z,96525.94
2023-05-06T06:39:34.142Z,96525.63
2023-05-06T06:42:04.231Z,96523.72
2023-05-06T06:44:39.584Z,96526.72
2023-05-06T06:47:08.259Z,96536.28
2023-05-06T06:49:37.084Z,96537.38
2023-05-06T06:52:06.949Z,96536.81
2023-05-06T06:54:35.939Z,96537.34
2023-05-06T06:57:04.462Z,96516.34
2023-05-06T06:59:32.830Z,96544.47
2023-05-06T07:02:02.366Z,96544.97
2023-05-06T07:04:30.875Z,96546.03
2023-05-06T07:07:00.150Z,96544.38
2023-05-06T07:09:29.929Z,96549.81
2023-05-06T07:11:59.632Z,96554.69
2023-05-06T07:14:28.075Z,96556.88
2023-05-06T07:16:56.971Z,96554.94
2023-05-06T07:19:25.809Z,96558.53
2023-05-06T07:21:54.652Z,96541.59
2023-05-06T07:24:23.247Z,96554.94
2023-05-06T07:26:54.562Z,96558.47
2023-05-06T07:29:22.998Z,96562.81
2023-05-06T07:31:51.786Z,96551.31
2023-05-06T07:34:21.235Z,96557.34
2023-05-06T07:36:50.540Z,96567.75
2023-05-06T07:39:19.428Z,96567.22
2023-05-06T07:41:47.802Z,96569.13
2023-05-06T07:44:18.548Z,96573.25
2023-05-06T07:46:47.000Z,96547.53
2023-05-06T07:49:15.921Z,96572.72
2023-05-06T07:51:45.482Z,96557.63
2023-05-06T07:54:14.298Z,96560.94
2023-05-06T07:56:44.434Z,96578.06
2023-05-06T07:59:12.891Z,96569.50
2023-05-06T08:01:45.562Z,96591.03
2023-05-06T08:04:14.242Z,96585.03
2023-05-06T08:06:43.156Z,96574.03
2023-05-06T08:09:17.002Z,96580.00
2023-05-06T08:11:51.052Z,96584.28
2023-05-06T08:14:19.970Z,96589.16
2023-05-06T08:16:50.349Z,96583.91
2023-05-06T08:19:19.794Z,96582.53
2023-05-06T08:21:48.732Z,96590.63
2023-05-06T08:24:17.594Z,96596.13
2023-05-06T08:26:45.972Z,96540.72
2023-05-06T08:29:14.805Z,96602.16
2023-05-06T08:31:44.647Z,96590.69
2023-05-06T08:34:14.574Z,96598.84
2023-05-06T08:36:43.445Z,96600.53
2023-05-06T08:39:13.678Z,96617.25
2023-05-06T08:41:46.180Z,96604.91
2023-05-06T08:44:17.520Z,96610.13
2023-05-06T08:46:46.195Z,96613.56
2023-05-06T08:49:17.067Z,96609.09
2023-05-06T08:51:46.211Z,96605.22
2023-05-06T08:54:15.349Z,96601.94
2023-05-06T08:56:49.128Z,96617.97
2023-05-06T08:59:20.957Z,96607.06
2023-05-06T09:01:49.685Z,96591.44
2023-05-06T09:04:20.725Z,96597.66
2023-05-06T09:06:49.136Z,96598.59
2023-05-06T09:09:17.499Z,96602.03
2023-05-06T09:11:46.406Z,96604.81
2023-05-06T09:14:16.612Z,96607.41
2023-05-06T09:16:47.566Z,96610.00
2023-05-06T09:19:17.168Z,96607.91
2023-05-06T09:21:49.487Z,96609.91
2023-05-06T09:24:18.571Z,96602.63
2023-05-06T09:26:48.602Z,96610.69
2023-05-06T09:29:17.017Z,96610.22
2023-05-06T09:31:46.582Z,96603.34
2023-05-06T09:34:17.477Z,96618.78
2023-05-06T09:36:47.229Z,96601.38
2023-05-06T09:39:15.981Z,96608.09
2023-05-06T09:41:44.602Z,96612.00
2023-05-06T09:44:13.200Z,96608.91
2023-05-06T09:46:42.193Z,96606.81
2023-05-06T09:49:11.586Z,96599.66
2023-05-06T09:51:41.933Z,96611.50
2023-05-06T09:54:13.115Z,96600.56
2023-05-06T09:56:42.760Z,96602.00
2023-05-06T09:59:12.137Z,96602.72
2023-05-06T10:01:41.346Z,96602.94
2023-05-06T10:04:12.781Z,96605.50
2023-05-06T10:06:41.943Z,96596.44
2023-05-06T10:09:12.092Z,96598.78
2023-05-06T10:11:41.082Z,96607.03
2023-05-06T10:14:11.190Z,96606.63
2023-05-06T10:16:41.322Z,96607.41
2023-05-06T10:19:10.789Z,96597.50
2023-05-06T10:21:46.585Z,96589.47
2023-05-06T10:24:19.514Z,96599.91
2023-05-06T10:26:50.396Z,96600.25
2023-05-06T10:29:20.745Z,96598.78
2023-05-06T10:31:54.051Z,96597.38
2023-05-06T10:34:24.259Z,96596.31
2023-05-06T10:36:57.783Z,96591.75
2023-05-06T10:39:29.206Z,96589.56
2023-05-06T10:41:57.968Z,96571.84
2023-05-06T10:45:01.091Z,96580.50
2023-05-06T10:47:29.601Z,96577.53
2023-05-06T10:50:22.222Z,96585.56
2023-05-06T10:52:53.453Z,96574.56
2023-05-06T10:55:31.031Z,96565.13
2023-05-06T10:58:04.885Z,96564.19
2023-05-06T11:00:34.113Z,96565.00
2023-05-06T11:03:05.178Z,96565.50
2023-05-06T11:05:36.934Z,96554.13
2023-05-06T11:08:12.588Z,96557.53
2023-05-06T11:10:42.932Z,96554.75
2023-05-06T11:13:26.721Z,96559.31
2023-05-06T11:15:56.509Z,96554.94
2023-05-06T11:18:44.643Z,96551.16
2023-05-06T11:21:38.910Z,96558.63
2023-05-06T11:24:10.176Z,96540.34
2023-05-06T11:26:41.529Z,96561.09
2023-05-06T11:29:11.050Z,96554.16
2023-05-06T11:31:41.652Z,96558.53
2023-05-06T11:34:13.161Z,96565.59
2023-05-06T11:36:50.669Z,96553.53
2023-05-06T11:39:19.211Z,96554.28
2023-05-06T11:41:50.632Z,96553.06
2023-05-06T11:44:26.515Z,96562.41
2023-05-06T11:47:04.302Z,96554.25
2023-05-06T11:49:38.376Z,96556.84
2023-05-06T11:52:07.656Z,96567.22
2023-05-06T11:54:37.346Z,96555.88
2023-05-06T11:57:08.757Z,96555.41
2023-05-06T11:59:38.459Z,96553.38
2023-05-06T12:02:09.013Z,96550.66
2023-05-06T12:04:42.485Z,96541.31
2023-05-06T12:07:12.673Z,96561.84
2023-05-06T12:09:43.456Z,96549.03
2023-05-06T12:12:18.083Z,96551.84
2023-05-06T12:14:47.649Z,96551.25
2023-05-06T12:17:18.163Z,96553.69
2023-05-06T12:19:47.417Z,96551.09
2023-05-06T12:22:18.393Z,96548.00
2023-05-06T12:24:47.248Z,96535.41
2023-05-06T12:27:30.953Z,96550.34
2023-05-06T12:30:01.084Z,96534.38
2023-05-06T12:32:29.574Z,96548.88
2023-05-06T12:35:06.033Z,96539.53
2023-05-06T12:37:34.443Z,96537.56
2023-05-06T12:40:04.205Z,96530.38
2023-05-06T12:42:34.588Z,96526.56
2023-05-06T12:45:15.338Z,96531.91
2023-05-06T12:47:53.941Z,96536.97
2023-05-06T12:50:35.432Z,96535.56
2023-05-06T12:53:04.047Z,96541.75
2023-05-06T12:55:33.082Z,96539.63
2023-05-06T12:58:04.081Z,96531.94
2023-05-06T13:00:32.575Z,96535.38
2023-05-06T13:03:01.987Z,96532.88
2023-05-06T13:05:30.528Z,96524.16
2023-05-06T13:08:00.460Z,96521.63
2023-05-06T13:10:28.926Z,96509.47
2023-05-06T13:12:57.893Z,96524.03
2023-05-06T13:15:28.713Z,96517.28
2023-05-06T13:17:57.285Z,96519.22
2023-05-06T13:20:27.472Z,96513.03
2023-05-06T13:22:56.305Z,96519.09
2023-05-06T13:25:24.778Z,96514.56
2023-05-06T13:27:55.542Z,96512.72
2023-05-06T13:30:23.976Z,96482.44
2023-05-06T13:32:54.611Z,96509.88
2023-05-06T13:35:23.013Z,96512.81
2023-05-06T13:37:52.469Z,96515.28
2023-05-06T13:40:22.377Z,96499.56
2023-05-06T13:42:50.740Z,96508.97
2023-05-06T13:45:19.614Z,96506.72
2023-05-06T13:47:48.097Z,96497.94
2023-05-06T13:50:19.386Z,96499.41
2023-05-06T13:52:47.822Z,96486.81
2023-05-06T13:55:19.303Z,96480.59
2023-05-06T13:57:47.879Z,96474.81
2023-05-06T14:00:18.389Z,96480.03
2023-05-06T14:02:47.070Z,96493.13
2023-05-06T14:05:17.508Z,96490.75
2023-05-06T14:07:47.372Z,96484.81
2023-05-06T14:10:16.931Z,96460.88
2023-05-06T14:12:45.440Z,96474.28
2023-05-06T14:15:15.908Z,96480.38
2023-05-06T14:17:45.109Z,96470.31
2023-05-06T14:20:13.598Z,96472.19
2023-05-06T14:22:42.886Z,96461.13
2023-05-06T14:25:13.105Z,96445.59
2023-05-06T14:27:42.062Z,96458.88
2023-05-06T14:30:11.548Z,96461.91
2023-05-06T14:32:40.011Z,96460.03
2023-05-06T14:35:10.888Z,96458.56
2023-05-06T14:37:39.720Z,96461.09
2023-05-06T14:40:11.376Z,96451.72
2023-05-06T14:42:41.268Z,96459.69
2023-05-06T14:45:11.690Z,96456.06
2023-05-06T14:47:41.473Z,96458.44
2023-05-06T14:50:12.051Z,96426.97
2023-05-06T14:52:41.878Z,96445.78
2023-05-06T14:55:12.125Z,96451.06
2023-05-06T14:57:42.011Z,96438.66
2023-05-06T15:00:29.229Z,96447.97
2023-05-06T15:02:57.703Z,96455.91
2023-05-06T15:05:27.341Z,96448.47
2023-05-06T15:07:56.041Z,96447.22
2023-05-06T15:10:24.406Z,96443.78
2023-05-06T15:12:54.754Z,96441.97
2023-05-06T15:15:23.131Z,96442.00
2023-05-06T15:17:53.792Z,96438.03
2023-05-06T15:20:22.161Z,96437.88
2023-05-06T15:22:51.609Z,96442.56
2023-05-06T15:25:33.447Z,96434.94
2023-05-06T15:28:08.077Z,96439.09
2023-05-06T15:30:38.186Z,96441.75
2023-05-06T15:33:07.282Z,96438.34
2023-05-06T15:35:35.781Z,96443.59
2023-05-06T15:38:06.049Z,96440.66
2023-05-06T15:40:36.883Z,96435.47
2023-05-06T15:43:08.446Z,96433.09
2023-05-06T15:45:38.007Z,96439.16
2023-05-06T15:48:08.199Z,96431.06
2023-05-06T15:50:37.899Z,96424.88
2023-05-06T15:53:06.577Z,96429.59
2023-05-06T15:55:45.203Z,96431.22
2023-05-06T15:58:18.092Z,96430.59
2023-05-06T16:00:46.565Z,96415.38
2023-05-06T16:03:15.530Z,96410.34
2023-05-06T16:05:44.077Z,96414.94
2023-05-06T16:08:13.998Z,96422.56
2023-05-06T16:10:42.489Z,96426.63
2023-05-06T16:13:11.828Z,96420.69
2023-05-06T16:15:42.731Z,96425.31
2023-05-06T16:18:11.411Z,96429.28
2023-05-06T16:20:40.279Z,96432.66
2023-05-06T16:23:08.699Z,96422.31
2023-05-06T16:25:39.387Z,96418.50
2023-05-06T16:28:08.781Z,96416.69
2023-05-06T16:30:38.085Z,96419.38
2023-05-06T16:33:08.338Z,96416.41
2023-05-06T16:35:37.244Z,96414.94
2023-05-06T16:38:06.048Z,96421.28
2023-05-06T16:40:41.725Z,96414.84
2023-05-06T16:43:10.934Z,96413.59
2023-05-06T16:45:39.705Z,96405.81
2023-05-06T16:48:09.992Z,96405.56
2023-05-06T16:50:38.423Z,96412.88
2023-05-06T16:53:08.124Z,96407.75
2023-05-06T16:55:37.067Z,96396.19
2023-05-06T16:58:05.511Z,96406.16
2023-05-06T17:00:34.358Z,96407.16
2023-05-06T17:03:03.841Z,96396.91
2023-05-06T17:05:34.693Z,96397.94
2023-05-06T17:08:03.532Z,96407.81
2023-05-06T17:10:33.009Z,96401.09
2023-05-06T17:13:01.974Z,96412.81
2023-05-06T17:15:30.398Z,96402.91
2023-05-06T17:17:59.621Z,96408.00
2023-05-06T17:20:28.070Z,96402.41
2023-05-06T17:22:58.669Z,96400.41
2023-05-06T17:25:27.166Z,96397.75
2023-05-06T17:27:56.701Z,96406.97
2023-05-06T17:30:25.266Z,96407.97
2023-05-06T17:32:54.803Z,96401.72
2023-05-06T17:35:23.146Z,96391.56
2023-05-06T17:37:56.803Z,96395.25
2023-05-06T17:40:26.525Z,96393.75
2023-05-06T17:42:56.085Z,96400.25
2023-05-06T17:45:25.849Z,96402.78
2023-05-06T17:47:54.300Z,96398.16
2023-05-06T17:50:23.988Z,96388.94
2023-05-06T17:52:52.922Z,96401.31
2023-05-06T17:55:22.753Z,96400.41
2023-05-06T17:57:53.508Z,96408.63
2023-05-06T18:00:23.265Z,96380.06
2023-05-06T18:02:52.127Z,96409.22
2023-05-06T18:05:22.215Z,96406.19
2023-05-06T18:07:50.976Z,96405.06
2023-05-06T18:10:20.032Z,96406.66
2023-05-06T18:12:49.356Z,96400.50
2023-05-06T18:15:19.136Z,96406.53
2023-05-06T18:17:47.986Z,96409.16
2023-05-06T18:20:16.747Z,96410.13
2023-05-06T18:22:45.139Z,96413.97
2023-05-06T18:25:15.225Z,96411.19
2023-05-06T18:27:43.574Z,96406.91
2023-05-06T18:30:13.476Z,96412.44
2023-05-06T18:32:43.205Z,96420.97
2023-05-06T18:35:12.963Z,96410.50
2023-05-06T18:37:41.573Z,96424.56
2023-05-06T18:40:12.012Z,96422.91
2023-05-06T18:42:40.428Z,96424.16
2023-05-06T18:45:11.881Z,96427.00
2023-05-06T18:47:40.486Z,96423.69
2023-05-06T18:50:12.741Z,96433.91
2023-05-06T18:52:41.315Z,96424.28
2023-05-06T18:55:10.635Z,96426.97
2023-05-06T18:57:39.535Z,96433.84
2023-05-06T19:00:09.429Z,96432.03
2023-05-06T19:02:38.414Z,96430.50
2023-05-06T19:05:08.407Z,96438.25
2023-05-06T19:07:39.180Z,96427.78
2023-05-06T19:10:08.986Z,96444.41
2023-05-06T19:12:37.425Z,96433.81
2023-05-06T19:15:07.224Z,96442.81
2023-05-06T19:17:35.881Z,96436.38
2023-05-06T19:20:05.162Z,96430.47
2023-05-06T19:22:34.419Z,96430.56
2023-05-06T19:25:04.841Z,96432.16
2023-05-06T19:27:33.244Z,96433.63
2023-05-06T19:30:03.175Z,96441.38
2023-05-06T19:32:32.849Z,96443.88
2023-05-06T19:35:07.957Z,96436.97
2023-05-06T19:37:37.229Z,96446.19
2023-05-06T19:40:09.119Z,96444.03
2023-05-06T19:42:37.899Z,96447.19
2023-05-06T19:45:10.192Z,96438.44
2023-05-06T19:47:39.741Z,96442.03
2023-05-06T19:50:09.310Z,96441.91
2023-05-06T19:52:38.386Z,96436.72
2023-05-06T19:55:09.542Z,96443.34
2023-05-06T19:57:39.031Z,96432.94
2023-05-06T20:00:10.183Z,96434.22
2023-05-06T20:02:39.534Z,96437.13
2023-05-06T20:05:09.005Z,96435.28
2023-05-06T20:07:38.246Z,96430.25
2023-05-06T20:10:10.058Z,96421.13
2023-05-06T20:12:38.490Z,96429.06
2023-05-06T20:15:08.685Z,96428.03
2023-05-06T20:17:37.406Z,96434.09
2023-05-06T20:20:09.839Z,96435.66
2023-05-06T20:22:39.440Z,96433.28
2023-05-06T20:25:14.464Z,96436.69
2023-05-06T20:27:44.066Z,96434.28
2023-05-06T20:30:12.836Z,96435.69
2023-05-06T20:32:42.453Z,96441.84
2023-05-06T20:35:12.644Z,96434.56
2023-05-06T20:37:41.730Z,96436.31
2023-05-06T20:40:12.697Z,96434.75
2023-05-06T20:42:42.020Z,96439.56
2023-05-06T20:45:11.153Z,96439.50
2023-05-06T20:47:40.242Z,96435.94
2023-05-06T20:50:09.301Z,96429.84
2023-05-06T20:52:38.122Z,96440.31
2023-05-06T20:55:07.645Z,96435.41
2023-05-06T20:57:43.000Z,96431.09
2023-05-06T21:00:12.286Z,96429.56
2023-05-06T21:02:42.189Z,96428.56
2023-05-06T21:05:11.492Z,96430.75
2023-05-06T21:07:40.985Z,96430.22
2023-05-06T21:10:11.353Z,96422.59
2023-05-06T21:12:41.588Z,96434.97
2023-05-06T21:15:11.184Z,96430.09
2023-05-06T21:17:39.793Z,96437.44
2023-05-06T21:20:09.665Z,96431.72
2023-05-06T21:22:39.599Z,96429.81
2023-05-06T21:25:09.752Z,96435.91
2023-05-06T21:27:38.770Z,96433.72
2023-05-06T21:30:10.449Z,96439.47
2023-05-06T21:32:39.576Z,96440.91
2023-05-06T21:35:08.944Z,96441.78
2023-05-06T21:37:37.911Z,96432.53
2023-05-06T21:40:07.132Z,96432.84
2023-05-06T21:42:37.059Z,96444.94
2023-05-06T21:45:06.330Z,96436.19
2023-05-06T21:47:36.897Z,96443.03
2023-05-06T21:50:07.213Z,96439.25
2023-05-06T21:52:35.671Z,96439.28
2023-05-06T21:55:05.260Z,96439.00
2023-05-06T21:57:33.676Z,96440.16
2023-05-06T22:00:08.342Z,96442.59
2023-05-06T22:02:38.120Z,96430.56
2023-05-06T22:05:07.520Z,96434.19
2023-05-06T22:07:36.080Z,96439.13
2023-05-06T22:10:05.853Z,96438.34
2023-05-06T22:12:37.241Z,96428.25
2023-05-06T22:15:07.842Z,96435.94
2023-05-06T22:17:36.917Z,96438.13
2023-05-06T22:20:10.936Z,96435.63
2023-05-06T22:22:41.101Z,96439.25
2023-05-06T22:25:10.730Z,96432.13
2023-05-06T22:27:39.369Z,96440.59
2023-05-06T22:30:11.028Z,96433.81
2023-05-06T22:32:39.837Z,96434.38
2023-05-06T22:35:11.111Z,96430.31
2023-05-06T22:37:39.634Z,96437.44
2023-05-06T22:40:10.495Z,96432.53
2023-05-06T22:42:39.251Z,96430.88
2023-05-06T22:45:09.590Z,96430.63
2023-05-06T22:47:38.584Z,96426.28
2023-05-06T22:50:09.734Z,96427.94
2023-05-06T22:52:38.065Z,96429.31
2023-05-06T22:55:09.708Z,96438.31
2023-05-06T22:57:38.325Z,96438.84
2023-05-06T23:00:08.746Z,96438.59
2023-05-06T23:02:37.281Z,96436.41
2023-05-06T23:05:06.755Z,96429.06
2023-05-06T23:07:37.615Z,96426.91
2023-05-06T23:10:07.423Z,96429.38
2023-05-06T23:12:36.468Z,96426.41
2023-05-06T23:15:05.611Z,96427.78
2023-05-06T23:17:34.666Z,96421.47
2023-05-06T23:20:03.493Z,96425.31
2023-05-06T23:22:32.729Z,96426.41
2023-05-06T23:25:03.666Z,96412.19
2023-05-06T23:27:32.164Z,96414.38
2023-05-06T23:30:01.736Z,96421.50
2023-05-06T23:32:30.099Z,96419.88
2023-05-06T23:34:59.393Z,96421.25
2023-05-06T23:37:27.947Z,96417.97
2023-05-06T23:39:59.691Z,96419.06
2023-05-06T23:42:29.792Z,96420.19
2023-05-06T23:45:00.020Z,96416.91
2023-05-06T23:47:29.269Z,96420.50
2023-05-06T23:49:58.712Z,96417.19
2023-05-06T23:52:27.959Z,96419.09
2023-05-06T23:54:56.265Z,96417.47
2023-05-06T23:57:25.136Z,96418.00
2023-05-06T23:59:54.778Z,96416.94
